sensor_id;sensor_type;location;lat;lon;timestamp;pressure;altitude;pressure_sealevel;temperature;humidity
28648;BME280;17137;51.494;-0.262;2022-10-17T00:00:12;50075.57;;;-145.72;100.00
28648;BME280;17137;51.494;-0.262;2022-10-17T00:00:42;50060.91;;;-145.72;100.00
28648;BME280;17137;51.494;-0.262;2022-10-17T00:01:13;50065.10;;;-145.72;100.00
28648;BME280;17137;51.494;-0.262;2022-10-17T00:01:44;50069.66;;;-145.72;100.00
28648;BME280;17137;51.494;-0.262;2022-10-17T00:02:14;50074.22;;;-145.72;100.00
28648;BME280;17137;51.494;-0.262;2022-10-17T00:02:44;50061.65;;;-145.72;100.00
28648;BME280;17137;51.494;-0.262;2022-10-17T00:03:14;50068.18;;;-145.72;100.00
28648;BME280;17137;51.494;-0.262;2022-10-17T00:03:45;50073.48;;;-145.72;100.00
28648;BME280;17137;51.494;-0.262;2022-10-17T00:04:15;50066.82;;;-145.72;100.00
28648;BME280;17137;51.494;-0.262;2022-10-17T00:04:45;50067.19;;;-145.72;100.00
28648;BME280;17137;51.494;-0.262;2022-10-17T00:05:16;50062.38;;;-145.72;100.00
28648;BME280;17137;51.494;-0.262;2022-10-17T00:05:47;50069.90;;;-145.72;100.00
28648;BME280;17137;51.494;-0.262;2022-10-17T00:06:18;50056.34;;;-145.72;100.00
28648;BME280;17137;51.494;-0.262;2022-10-17T00:06:48;50068.18;;;-145.72;100.00
28648;BME280;17137;51.494;-0.262;2022-10-17T00:07:18;50065.22;;;-145.72;100.00
28648;BME280;17137;51.494;-0.262;2022-10-17T00:07:49;50065.10;;;-145.72;100.00
28648;BME280;17137;51.494;-0.262;2022-10-17T00:08:19;50056.47;;;-145.72;100.00
28648;BME280;17137;51.494;-0.262;2022-10-17T00:08:50;50075.20;;;-145.72;100.00
28648;BME280;17137;51.494;-0.262;2022-10-17T00:09:20;50072.86;;;-145.72;100.00
28648;BME280;17137;51.494;-0.262;2022-10-17T00:09:50;50073.11;;;-145.72;100.00
28648;BME280;17137;51.494;-0.262;2022-10-17T00:10:21;50077.67;;;-145.72;100.00
28648;BME280;17137;51.494;-0.262;2022-10-17T00:10:56;50066.82;;;-145.72;100.00
28648;BME280;17137;51.494;-0.262;2022-10-17T00:11:27;50061.15;;;-145.72;100.00
28648;BME280;17137;51.494;-0.262;2022-10-17T00:11:57;50064.11;;;-145.72;100.00
28648;BME280;17137;51.494;-0.262;2022-10-17T00:12:27;50069.53;;;-145.72;100.00
28648;BME280;17137;51.494;-0.262;2022-10-17T00:12:57;50075.20;;;-145.72;100.00
28648;BME280;17137;51.494;-0.262;2022-10-17T00:13:28;50064.11;;;-145.72;100.00
28648;BME280;17137;51.494;-0.262;2022-10-17T00:13:59;50067.07;;;-145.72;100.00
28648;BME280;17137;51.494;-0.262;2022-10-17T00:14:29;50073.11;;;-145.72;100.00
28648;BME280;17137;51.494;-0.262;2022-10-17T00:14:59;50067.68;;;-145.72;100.00
28648;BME280;17137;51.494;-0.262;2022-10-17T00:15:36;50066.33;;;-145.72;100.00
28648;BME280;17137;51.494;-0.262;2022-10-17T00:16:07;50075.20;;;-145.72;100.00
28648;BME280;17137;51.494;-0.262;2022-10-17T00:16:38;50077.67;;;-145.72;100.00
28648;BME280;17137;51.494;-0.262;2022-10-17T00:17:08;50073.48;;;-145.72;100.00
28648;BME280;17137;51.494;-0.262;2022-10-17T00:17:38;50076.19;;;-145.72;100.00
28648;BME280;17137;51.494;-0.262;2022-10-17T00:18:09;50063.99;;;-145.72;100.00
28648;BME280;17137;51.494;-0.262;2022-10-17T00:18:39;50069.41;;;-145.72;100.00
28648;BME280;17137;51.494;-0.262;2022-10-17T00:19:09;50077.55;;;-145.72;100.00
28648;BME280;17137;51.494;-0.262;2022-10-17T00:19:40;50067.56;;;-145.72;100.00
28648;BME280;17137;51.494;-0.262;2022-10-17T00:20:11;50071.14;;;-145.72;100.00
28648;BME280;17137;51.494;-0.262;2022-10-17T00:20:42;50069.53;;;-145.72;100.00
28648;BME280;17137;51.494;-0.262;2022-10-17T00:21:16;50073.35;;;-145.72;100.00
28648;BME280;17137;51.494;-0.262;2022-10-17T00:21:48;50071.51;;;-145.72;100.00
28648;BME280;17137;51.494;-0.262;2022-10-17T00:22:18;50066.70;;;-145.72;100.00
28648;BME280;17137;51.494;-0.262;2022-10-17T00:22:49;50066.82;;;-145.72;100.00
28648;BME280;17137;51.494;-0.262;2022-10-17T00:23:19;50072.25;;;-145.72;100.00
28648;BME280;17137;51.494;-0.262;2022-10-17T00:23:50;50080.01;;;-145.72;100.00
28648;BME280;17137;51.494;-0.262;2022-10-17T00:24:20;50076.19;;;-145.72;100.00
28648;BME280;17137;51.494;-0.262;2022-10-17T00:24:51;50067.44;;;-145.72;100.00
28648;BME280;17137;51.494;-0.262;2022-10-17T00:25:21;50072.12;;;-145.72;100.00
28648;BME280;17137;51.494;-0.262;2022-10-17T00:25:58;50071.75;;;-145.72;100.00
28648;BME280;17137;51.494;-0.262;2022-10-17T00:26:28;50080.38;;;-145.72;100.00
28648;BME280;17137;51.494;-0.262;2022-10-17T00:26:58;50079.27;;;-145.72;100.00
28648;BME280;17137;51.494;-0.262;2022-10-17T00:27:29;50076.44;;;-145.72;100.00
28648;BME280;17137;51.494;-0.262;2022-10-17T00:27:59;50077.30;;;-145.72;100.00
28648;BME280;17137;51.494;-0.262;2022-10-17T00:28:30;50078.41;;;-145.72;100.00
28648;BME280;17137;51.494;-0.262;2022-10-17T00:29:00;50067.19;;;-145.72;100.00
28648;BME280;17137;51.494;-0.262;2022-10-17T00:29:31;50067.32;;;-145.72;100.00
28648;BME280;17137;51.494;-0.262;2022-10-17T00:30:02;50077.30;;;-145.72;100.00
28648;BME280;17137;51.494;-0.262;2022-10-17T00:30:33;50082.72;;;-145.72;100.00
28648;BME280;17137;51.494;-0.262;2022-10-17T00:31:04;50070.89;;;-145.72;100.00
28648;BME280;17137;51.494;-0.262;2022-10-17T00:31:36;50074.09;;;-145.72;100.00
28648;BME280;17137;51.494;-0.262;2022-10-17T00:32:06;50081.74;;;-145.72;100.00
28648;BME280;17137;51.494;-0.262;2022-10-17T00:32:37;50082.60;;;-145.72;100.00
28648;BME280;17137;51.494;-0.262;2022-10-17T00:33:07;50079.52;;;-145.72;100.00
28648;BME280;17137;51.494;-0.262;2022-10-17T00:33:37;50074.34;;;-145.72;100.00
28648;BME280;17137;51.494;-0.262;2022-10-17T00:34:08;50074.71;;;-145.72;100.00
28648;BME280;17137;51.494;-0.262;2022-10-17T00:34:38;50079.03;;;-145.72;100.00
28648;BME280;17137;51.494;-0.262;2022-10-17T00:35:08;50078.29;;;-145.72;100.00
28648;BME280;17137;51.494;-0.262;2022-10-17T00:35:39;50068.67;;;-145.72;100.00
28648;BME280;17137;51.494;-0.262;2022-10-17T00:36:12;50076.93;;;-145.72;100.00
28648;BME280;17137;51.494;-0.262;2022-10-17T00:36:42;50071.01;;;-145.72;100.00
28648;BME280;17137;51.494;-0.262;2022-10-17T00:37:13;50071.88;;;-145.72;100.00
28648;BME280;17137;51.494;-0.262;2022-10-17T00:37:43;50080.87;;;-145.72;100.00
28648;BME280;17137;51.494;-0.262;2022-10-17T00:38:13;50078.41;;;-145.72;100.00
28648;BME280;17137;51.494;-0.262;2022-10-17T00:38:46;50068.55;;;-145.72;100.00
28648;BME280;17137;51.494;-0.262;2022-10-17T00:39:16;50079.03;;;-145.72;100.00
28648;BME280;17137;51.494;-0.262;2022-10-17T00:39:46;50067.68;;;-145.72;100.00
28648;BME280;17137;51.494;-0.262;2022-10-17T00:40:17;50067.56;;;-145.72;100.00
28648;BME280;17137;51.494;-0.262;2022-10-17T00:40:47;50080.75;;;-145.72;100.00
28648;BME280;17137;51.494;-0.262;2022-10-17T00:41:21;50075.57;;;-145.72;100.00
28648;BME280;17137;51.494;-0.262;2022-10-17T00:41:51;50079.03;;;-145.72;100.00
28648;BME280;17137;51.494;-0.262;2022-10-17T00:42:22;50079.27;;;-145.72;100.00
28648;BME280;17137;51.494;-0.262;2022-10-17T00:42:52;50073.72;;;-145.72;100.00
28648;BME280;17137;51.494;-0.262;2022-10-17T00:43:22;50081.98;;;-145.72;100.00
28648;BME280;17137;51.494;-0.262;2022-10-17T00:43:56;50079.15;;;-145.72;100.00
28648;BME280;17137;51.494;-0.262;2022-10-17T00:45:31;50081.37;;;-145.72;100.00
28648;BME280;17137;51.494;-0.262;2022-10-17T00:46:01;50074.09;;;-145.72;100.00
28648;BME280;17137;51.494;-0.262;2022-10-17T00:46:33;50085.80;;;-145.72;100.00
28648;BME280;17137;51.494;-0.262;2022-10-17T00:47:06;50078.66;;;-145.72;100.00
28648;BME280;17137;51.494;-0.262;2022-10-17T00:47:39;50089.26;;;-145.72;100.00
28648;BME280;17137;51.494;-0.262;2022-10-17T00:48:11;50084.08;;;-145.72;100.00
28648;BME280;17137;51.494;-0.262;2022-10-17T00:48:42;50074.71;;;-145.72;100.00
28648;BME280;17137;51.494;-0.262;2022-10-17T00:49:12;50089.63;;;-145.72;100.00
28648;BME280;17137;51.494;-0.262;2022-10-17T00:49:43;50075.45;;;-145.72;100.00
28648;BME280;17137;51.494;-0.262;2022-10-17T00:50:13;50077.05;;;-145.72;100.00
28648;BME280;17137;51.494;-0.262;2022-10-17T00:50:47;50079.52;;;-145.72;100.00
28648;BME280;17137;51.494;-0.262;2022-10-17T00:51:22;50080.63;;;-145.72;100.00
28648;BME280;17137;51.494;-0.262;2022-10-17T00:51:56;50091.84;;;-145.72;100.00
28648;BME280;17137;51.494;-0.262;2022-10-17T00:52:28;50076.07;;;-145.72;100.00
28648;BME280;17137;51.494;-0.262;2022-10-17T00:53:02;50073.35;;;-145.72;100.00
28648;BME280;17137;51.494;-0.262;2022-10-17T00:53:34;50073.85;;;-145.72;100.00
28648;BME280;17137;51.494;-0.262;2022-10-17T00:54:07;50076.19;;;-145.72;100.00
28648;BME280;17137;51.494;-0.262;2022-10-17T00:54:40;50070.03;;;-145.72;100.00
28648;BME280;17137;51.494;-0.262;2022-10-17T00:55:14;50076.68;;;-145.72;100.00
28648;BME280;17137;51.494;-0.262;2022-10-17T00:55:48;50080.87;;;-145.72;100.00
28648;BME280;17137;51.494;-0.262;2022-10-17T00:56:20;50084.57;;;-145.72;100.00
28648;BME280;17137;51.494;-0.262;2022-10-17T00:56:51;50076.68;;;-145.72;100.00
28648;BME280;17137;51.494;-0.262;2022-10-17T00:57:22;50079.89;;;-145.72;100.00
28648;BME280;17137;51.494;-0.262;2022-10-17T00:57:52;50084.70;;;-145.72;100.00
28648;BME280;17137;51.494;-0.262;2022-10-17T00:58:23;50091.97;;;-145.72;100.00
28648;BME280;17137;51.494;-0.262;2022-10-17T00:58:53;50083.83;;;-145.72;100.00
28648;BME280;17137;51.494;-0.262;2022-10-17T00:59:24;50083.46;;;-145.72;100.00
28648;BME280;17137;51.494;-0.262;2022-10-17T00:59:55;50078.53;;;-145.72;100.00
28648;BME280;17137;51.494;-0.262;2022-10-17T01:00:28;50072.25;;;-145.72;100.00
28648;BME280;17137;51.494;-0.262;2022-10-17T01:00:58;50076.93;;;-145.72;100.00
28648;BME280;17137;51.494;-0.262;2022-10-17T01:01:28;50081.86;;;-145.72;100.00
28648;BME280;17137;51.494;-0.262;2022-10-17T01:02:02;50091.72;;;-145.72;100.00
28648;BME280;17137;51.494;-0.262;2022-10-17T01:02:33;50072.86;;;-145.72;100.00
28648;BME280;17137;51.494;-0.262;2022-10-17T01:03:04;50070.15;;;-145.72;100.00
28648;BME280;17137;51.494;-0.262;2022-10-17T01:03:34;50072.12;;;-145.72;100.00
28648;BME280;17137;51.494;-0.262;2022-10-17T01:04:04;50079.27;;;-145.72;100.00
28648;BME280;17137;51.494;-0.262;2022-10-17T01:04:35;50080.87;;;-145.72;100.00
28648;BME280;17137;51.494;-0.262;2022-10-17T01:05:07;50084.70;;;-145.72;100.00
28648;BME280;17137;51.494;-0.262;2022-10-17T01:05:39;50085.80;;;-145.72;100.00
28648;BME280;17137;51.494;-0.262;2022-10-17T01:06:10;50079.39;;;-145.72;100.00
28648;BME280;17137;51.494;-0.262;2022-10-17T01:06:40;50077.67;;;-145.72;100.00
28648;BME280;17137;51.494;-0.262;2022-10-17T01:07:11;50080.38;;;-145.72;100.00
28648;BME280;17137;51.494;-0.262;2022-10-17T01:07:42;50081.00;;;-145.72;100.00
28648;BME280;17137;51.494;-0.262;2022-10-17T01:08:13;50089.01;;;-145.72;100.00
28648;BME280;17137;51.494;-0.262;2022-10-17T01:08:44;50085.68;;;-145.72;100.00
28648;BME280;17137;51.494;-0.262;2022-10-17T01:09:14;50082.97;;;-145.72;100.00
28648;BME280;17137;51.494;-0.262;2022-10-17T01:09:46;50086.05;;;-145.72;100.00
28648;BME280;17137;51.494;-0.262;2022-10-17T01:10:16;50095.79;;;-145.72;100.00
28648;BME280;17137;51.494;-0.262;2022-10-17T01:10:56;50091.10;;;-145.72;100.00
28648;BME280;17137;51.494;-0.262;2022-10-17T01:11:36;50091.72;;;-145.72;100.00
28648;BME280;17137;51.494;-0.262;2022-10-17T01:12:13;50081.00;;;-145.72;100.00
28648;BME280;17137;51.494;-0.262;2022-10-17T01:12:56;50086.30;;;-145.72;100.00
28648;BME280;17137;51.494;-0.262;2022-10-17T01:13:35;50088.76;;;-145.72;100.00
28648;BME280;17137;51.494;-0.262;2022-10-17T01:14:12;50086.54;;;-145.72;100.00
28648;BME280;17137;51.494;-0.262;2022-10-17T01:14:59;50091.35;;;-145.72;100.00
28648;BME280;17137;51.494;-0.262;2022-10-17T01:15:42;50080.13;;;-145.72;100.00
28648;BME280;17137;51.494;-0.262;2022-10-17T01:16:21;50077.55;;;-145.72;100.00
28648;BME280;17137;51.494;-0.262;2022-10-17T01:17:03;50084.20;;;-145.72;100.00
28648;BME280;17137;51.494;-0.262;2022-10-17T01:17:47;50076.56;;;-145.72;100.00
28648;BME280;17137;51.494;-0.262;2022-10-17T01:18:32;50089.50;;;-145.72;100.00
28648;BME280;17137;51.494;-0.262;2022-10-17T01:19:28;50098.01;;;-145.72;100.00
28648;BME280;17137;51.494;-0.262;2022-10-17T01:21:23;50087.78;;;-145.72;100.00
28648;BME280;17137;51.494;-0.262;2022-10-17T01:21:59;50086.91;;;-145.72;100.00
28648;BME280;17137;51.494;-0.262;2022-10-17T01:22:34;50106.14;;;-145.72;100.00
28648;BME280;17137;51.494;-0.262;2022-10-17T01:23:23;50089.50;;;-145.72;100.00
28648;BME280;17137;51.494;-0.262;2022-10-17T01:25:15;50095.54;;;-145.72;100.00
28648;BME280;17137;51.494;-0.262;2022-10-17T01:25:55;50087.04;;;-145.72;100.00
28648;BME280;17137;51.494;-0.262;2022-10-17T01:26:36;50090.49;;;-145.72;100.00
28648;BME280;17137;51.494;-0.262;2022-10-17T01:27:37;50085.68;;;-145.72;100.00
28648;BME280;17137;51.494;-0.262;2022-10-17T01:28:22;50085.68;;;-145.72;100.00
28648;BME280;17137;51.494;-0.262;2022-10-17T01:29:17;50097.14;;;-145.72;100.00
28648;BME280;17137;51.494;-0.262;2022-10-17T01:30:01;50081.37;;;-145.72;100.00
28648;BME280;17137;51.494;-0.262;2022-10-17T01:30:50;50096.53;;;-145.72;100.00
28648;BME280;17137;51.494;-0.262;2022-10-17T01:31:28;50093.57;;;-145.72;100.00
28648;BME280;17137;51.494;-0.262;2022-10-17T01:32:03;50092.95;;;-145.72;100.00
28648;BME280;17137;51.494;-0.262;2022-10-17T01:32:39;50095.91;;;-145.72;100.00
28648;BME280;17137;51.494;-0.262;2022-10-17T01:33:19;50090.49;;;-145.72;100.00
28648;BME280;17137;51.494;-0.262;2022-10-17T01:33:59;50107.99;;;-145.72;100.00
28648;BME280;17137;51.494;-0.262;2022-10-17T01:34:35;50092.46;;;-145.72;100.00
28648;BME280;17137;51.494;-0.262;2022-10-17T01:35:16;50081.12;;;-145.72;100.00
28648;BME280;17137;51.494;-0.262;2022-10-17T01:35:53;50098.25;;;-145.72;100.00
28648;BME280;17137;51.494;-0.262;2022-10-17T01:36:34;50084.82;;;-145.72;100.00
28648;BME280;17137;51.494;-0.262;2022-10-17T01:37:10;50088.15;;;-145.72;100.00
28648;BME280;17137;51.494;-0.262;2022-10-17T01:37:48;50098.62;;;-145.72;100.00
28648;BME280;17137;51.494;-0.262;2022-10-17T01:38:23;50097.51;;;-145.72;100.00
28648;BME280;17137;51.494;-0.262;2022-10-17T01:39:01;50095.17;;;-145.72;100.00
28648;BME280;17137;51.494;-0.262;2022-10-17T01:39:41;50083.09;;;-145.72;100.00
28648;BME280;17137;51.494;-0.262;2022-10-17T01:40:16;50077.79;;;-145.72;100.00
28648;BME280;17137;51.494;-0.262;2022-10-17T01:40:52;50089.50;;;-145.72;100.00
28648;BME280;17137;51.494;-0.262;2022-10-17T01:41:33;50098.87;;;-145.72;100.00
28648;BME280;17137;51.494;-0.262;2022-10-17T01:42:11;50093.69;;;-145.72;100.00
28648;BME280;17137;51.494;-0.262;2022-10-17T01:42:50;50086.30;;;-145.72;100.00
28648;BME280;17137;51.494;-0.262;2022-10-17T01:43:24;50091.84;;;-145.72;100.00
28648;BME280;17137;51.494;-0.262;2022-10-17T01:44:02;50086.54;;;-145.72;100.00
28648;BME280;17137;51.494;-0.262;2022-10-17T01:44:41;50086.05;;;-145.72;100.00
28648;BME280;17137;51.494;-0.262;2022-10-17T01:45:18;50097.27;;;-145.72;100.00
28648;BME280;17137;51.494;-0.262;2022-10-17T01:45:53;50098.38;;;-145.72;100.00
28648;BME280;17137;51.494;-0.262;2022-10-17T01:46:27;50096.04;;;-145.72;100.00
28648;BME280;17137;51.494;-0.262;2022-10-17T01:47:03;50102.08;;;-145.72;100.00
28648;BME280;17137;51.494;-0.262;2022-10-17T01:47:35;50092.58;;;-145.72;100.00
28648;BME280;17137;51.494;-0.262;2022-10-17T01:48:08;50106.88;;;-145.72;100.00
28648;BME280;17137;51.494;-0.262;2022-10-17T01:48:44;50092.46;;;-145.72;100.00
28648;BME280;17137;51.494;-0.262;2022-10-17T01:49:18;50082.97;;;-145.72;100.00
28648;BME280;17137;51.494;-0.262;2022-10-17T01:49:52;50095.30;;;-145.72;100.00
28648;BME280;17137;51.494;-0.262;2022-10-17T01:50:27;50091.35;;;-145.72;100.00
28648;BME280;17137;51.494;-0.262;2022-10-17T01:51:04;50101.21;;;-145.72;100.00
28648;BME280;17137;51.494;-0.262;2022-10-17T01:51:38;50115.63;;;-145.72;100.00
28648;BME280;17137;51.494;-0.262;2022-10-17T01:52:13;50103.43;;;-145.72;100.00
28648;BME280;17137;51.494;-0.262;2022-10-17T01:52:49;50096.65;;;-145.72;100.00
28648;BME280;17137;51.494;-0.262;2022-10-17T01:53:24;50101.95;;;-145.72;100.00
28648;BME280;17137;51.494;-0.262;2022-10-17T01:54:00;50111.20;;;-145.72;100.00
28648;BME280;17137;51.494;-0.262;2022-10-17T01:54:34;50105.53;;;-145.72;100.00
28648;BME280;17137;51.494;-0.262;2022-10-17T01:55:09;50099.73;;;-145.72;100.00
28648;BME280;17137;51.494;-0.262;2022-10-17T01:55:43;50099.36;;;-145.72;100.00
28648;BME280;17137;51.494;-0.262;2022-10-17T01:56:16;50107.62;;;-145.72;100.00
28648;BME280;17137;51.494;-0.262;2022-10-17T01:56:53;50110.21;;;-145.72;100.00
28648;BME280;17137;51.494;-0.262;2022-10-17T01:57:29;50109.10;;;-145.72;100.00
28648;BME280;17137;51.494;-0.262;2022-10-17T01:58:05;50100.47;;;-145.72;100.00
28648;BME280;17137;51.494;-0.262;2022-10-17T01:58:41;50098.01;;;-145.72;100.00
28648;BME280;17137;51.494;-0.262;2022-10-17T01:59:15;50106.27;;;-145.72;100.00
28648;BME280;17137;51.494;-0.262;2022-10-17T01:59:50;50109.96;;;-145.72;100.00
28648;BME280;17137;51.494;-0.262;2022-10-17T02:00:23;50099.98;;;-145.72;100.00
28648;BME280;17137;51.494;-0.262;2022-10-17T02:00:55;50095.42;;;-145.72;100.00
28648;BME280;17137;51.494;-0.262;2022-10-17T02:01:28;50104.79;;;-145.72;100.00
28648;BME280;17137;51.494;-0.262;2022-10-17T02:02:00;50110.95;;;-145.72;100.00
28648;BME280;17137;51.494;-0.262;2022-10-17T02:02:31;50105.40;;;-145.72;100.00
28648;BME280;17137;51.494;-0.262;2022-10-17T02:03:04;50112.31;;;-145.72;100.00
28648;BME280;17137;51.494;-0.262;2022-10-17T02:03:37;50111.94;;;-145.72;100.00
28648;BME280;17137;51.494;-0.262;2022-10-17T02:04:10;50109.10;;;-145.72;100.00
28648;BME280;17137;51.494;-0.262;2022-10-17T02:04:41;50118.35;;;-145.72;100.00
28648;BME280;17137;51.494;-0.262;2022-10-17T02:05:12;50118.84;;;-145.72;100.00
28648;BME280;17137;51.494;-0.262;2022-10-17T02:05:43;50104.66;;;-145.72;100.00
28648;BME280;17137;51.494;-0.262;2022-10-17T02:06:14;50102.08;;;-145.72;100.00
28648;BME280;17137;51.494;-0.262;2022-10-17T02:06:44;50111.94;;;-145.72;100.00
28648;BME280;17137;51.494;-0.262;2022-10-17T02:07:14;50106.64;;;-145.72;100.00
28648;BME280;17137;51.494;-0.262;2022-10-17T02:07:44;50112.43;;;-145.72;100.00
28648;BME280;17137;51.494;-0.262;2022-10-17T02:08:25;50104.42;;;-145.72;100.00
28648;BME280;17137;51.494;-0.262;2022-10-17T02:08:55;50108.85;;;-145.72;100.00
28648;BME280;17137;51.494;-0.262;2022-10-17T02:09:26;50102.20;;;-145.72;100.00
28648;BME280;17137;51.494;-0.262;2022-10-17T02:09:56;50096.28;;;-145.72;100.00
28648;BME280;17137;51.494;-0.262;2022-10-17T02:10:31;50101.34;;;-145.72;100.00
28648;BME280;17137;51.494;-0.262;2022-10-17T02:11:10;50113.54;;;-145.72;100.00
28648;BME280;17137;51.494;-0.262;2022-10-17T02:11:47;50100.97;;;-145.72;100.00
28648;BME280;17137;51.494;-0.262;2022-10-17T02:12:30;50115.76;;;-145.72;100.00
28648;BME280;17137;51.494;-0.262;2022-10-17T02:13:08;50102.81;;;-145.72;100.00
28648;BME280;17137;51.494;-0.262;2022-10-17T02:13:55;50109.84;;;-145.72;100.00
28648;BME280;17137;51.494;-0.262;2022-10-17T02:14:35;50097.76;;;-145.72;100.00
28648;BME280;17137;51.494;-0.262;2022-10-17T02:15:27;50108.73;;;-145.72;100.00
28648;BME280;17137;51.494;-0.262;2022-10-17T02:16:11;50104.42;;;-145.72;100.00
28648;BME280;17137;51.494;-0.262;2022-10-17T02:16:52;50099.12;;;-145.72;100.00
28648;BME280;17137;51.494;-0.262;2022-10-17T02:17:34;50106.02;;;-145.72;100.00
28648;BME280;17137;51.494;-0.262;2022-10-17T02:18:18;50113.54;;;-145.72;100.00
28648;BME280;17137;51.494;-0.262;2022-10-17T02:19:06;50121.80;;;-145.72;100.00
28648;BME280;17137;51.494;-0.262;2022-10-17T02:19:49;50105.28;;;-145.72;100.00
28648;BME280;17137;51.494;-0.262;2022-10-17T02:20:27;50109.10;;;-145.72;100.00
28648;BME280;17137;51.494;-0.262;2022-10-17T02:21:07;50121.06;;;-145.72;100.00
28648;BME280;17137;51.494;-0.262;2022-10-17T02:21:43;50110.46;;;-145.72;100.00
28648;BME280;17137;51.494;-0.262;2022-10-17T02:22:22;50120.32;;;-145.72;100.00
28648;BME280;17137;51.494;-0.262;2022-10-17T02:22:57;50111.44;;;-145.72;100.00
28648;BME280;17137;51.494;-0.262;2022-10-17T02:23:35;50098.25;;;-145.72;100.00
28648;BME280;17137;51.494;-0.262;2022-10-17T02:24:15;50102.20;;;-145.72;100.00
28648;BME280;17137;51.494;-0.262;2022-10-17T02:24:51;50104.29;;;-145.72;100.00
28648;BME280;17137;51.494;-0.262;2022-10-17T02:25:30;50114.52;;;-145.72;100.00
28648;BME280;17137;51.494;-0.262;2022-10-17T02:26:08;50100.10;;;-145.72;100.00
28648;BME280;17137;51.494;-0.262;2022-10-17T02:26:45;50100.23;;;-145.72;100.00
28648;BME280;17137;51.494;-0.262;2022-10-17T02:27:28;50107.01;;;-145.72;100.00
28648;BME280;17137;51.494;-0.262;2022-10-17T02:28:37;50097.39;;;-145.72;100.00
28648;BME280;17137;51.494;-0.262;2022-10-17T02:29:15;50111.07;;;-145.72;100.00
28648;BME280;17137;51.494;-0.262;2022-10-17T02:29:51;50104.91;;;-145.72;100.00
28648;BME280;17137;51.494;-0.262;2022-10-17T02:30:30;50108.98;;;-145.72;100.00
28648;BME280;17137;51.494;-0.262;2022-10-17T02:31:07;50098.01;;;-145.72;100.00
28648;BME280;17137;51.494;-0.262;2022-10-17T02:31:42;50113.05;;;-145.72;100.00
28648;BME280;17137;51.494;-0.262;2022-10-17T02:32:20;50106.88;;;-145.72;100.00
28648;BME280;17137;51.494;-0.262;2022-10-17T02:32:56;50112.06;;;-145.72;100.00
28648;BME280;17137;51.494;-0.262;2022-10-17T02:33:32;50097.39;;;-145.72;100.00
28648;BME280;17137;51.494;-0.262;2022-10-17T02:34:07;50102.44;;;-145.72;100.00
28648;BME280;17137;51.494;-0.262;2022-10-17T02:34:41;50103.18;;;-145.72;100.00
28648;BME280;17137;51.494;-0.262;2022-10-17T02:35:13;50107.13;;;-145.72;100.00
28648;BME280;17137;51.494;-0.262;2022-10-17T02:35:48;50104.79;;;-145.72;100.00
28648;BME280;17137;51.494;-0.262;2022-10-17T02:36:23;50100.84;;;-145.72;100.00
28648;BME280;17137;51.494;-0.262;2022-10-17T02:36:59;50102.57;;;-145.72;100.00
28648;BME280;17137;51.494;-0.262;2022-10-17T02:37:31;50104.91;;;-145.72;100.00
28648;BME280;17137;51.494;-0.262;2022-10-17T02:38:04;50095.30;;;-145.72;100.00
28648;BME280;17137;51.494;-0.262;2022-10-17T02:38:37;50101.58;;;-145.72;100.00
28648;BME280;17137;51.494;-0.262;2022-10-17T02:39:09;50112.80;;;-145.72;100.00
28648;BME280;17137;51.494;-0.262;2022-10-17T02:39:42;50099.61;;;-145.72;100.00
28648;BME280;17137;51.494;-0.262;2022-10-17T02:40:16;50101.58;;;-145.72;100.00
28648;BME280;17137;51.494;-0.262;2022-10-17T02:40:49;50104.66;;;-145.72;100.00
28648;BME280;17137;51.494;-0.262;2022-10-17T02:41:22;50106.51;;;-145.72;100.00
28648;BME280;17137;51.494;-0.262;2022-10-17T02:41:55;50101.95;;;-145.72;100.00
28648;BME280;17137;51.494;-0.262;2022-10-17T02:42:28;50106.39;;;-145.72;100.00
28648;BME280;17137;51.494;-0.262;2022-10-17T02:42:59;50109.22;;;-145.72;100.00
28648;BME280;17137;51.494;-0.262;2022-10-17T02:43:29;50098.99;;;-145.72;100.00
28648;BME280;17137;51.494;-0.262;2022-10-17T02:44:01;50106.76;;;-145.72;100.00
28648;BME280;17137;51.494;-0.262;2022-10-17T02:44:34;50114.89;;;-145.72;100.00
28648;BME280;17137;51.494;-0.262;2022-10-17T02:45:08;50120.19;;;-145.72;100.00
28648;BME280;17137;51.494;-0.262;2022-10-17T02:45:39;50099.86;;;-145.72;100.00
28648;BME280;17137;51.494;-0.262;2022-10-17T02:46:10;50100.23;;;-145.72;100.00
28648;BME280;17137;51.494;-0.262;2022-10-17T02:46:42;50114.89;;;-145.72;100.00
28648;BME280;17137;51.494;-0.262;2022-10-17T02:47:18;50121.80;;;-145.72;100.00
28648;BME280;17137;51.494;-0.262;2022-10-17T02:47:56;50114.89;;;-145.72;100.00
28648;BME280;17137;51.494;-0.262;2022-10-17T02:48:34;50124.63;;;-145.72;100.00
28648;BME280;17137;51.494;-0.262;2022-10-17T02:49:11;50108.36;;;-145.72;100.00
28648;BME280;17137;51.494;-0.262;2022-10-17T02:49:49;50101.58;;;-145.72;100.00
28648;BME280;17137;51.494;-0.262;2022-10-17T02:50:26;50107.87;;;-145.72;100.00
28648;BME280;17137;51.494;-0.262;2022-10-17T02:51:03;50115.02;;;-145.72;100.00
28648;BME280;17137;51.494;-0.262;2022-10-17T02:51:41;50104.17;;;-145.72;100.00
28648;BME280;17137;51.494;-0.262;2022-10-17T02:52:16;50100.97;;;-145.72;100.00
28648;BME280;17137;51.494;-0.262;2022-10-17T02:52:51;50106.88;;;-145.72;100.00
28648;BME280;17137;51.494;-0.262;2022-10-17T02:53:29;50095.17;;;-145.72;100.00
28648;BME280;17137;51.494;-0.262;2022-10-17T02:54:06;50110.95;;;-145.72;100.00
28648;BME280;17137;51.494;-0.262;2022-10-17T02:54:40;50098.01;;;-145.72;100.00
28648;BME280;17137;51.494;-0.262;2022-10-17T02:55:16;50095.79;;;-145.72;100.00
28648;BME280;17137;51.494;-0.262;2022-10-17T02:55:52;50094.31;;;-145.72;100.00
28648;BME280;17137;51.494;-0.262;2022-10-17T02:56:24;50099.24;;;-145.72;100.00
28648;BME280;17137;51.494;-0.262;2022-10-17T02:57:00;50099.73;;;-145.72;100.00